sensor_id;sensor_type;location;lat;lon;timestamp;pressure;altitude;pressure_sealevel;temperature;humidity
18533;BME280;9396;51.510;11.934;2023-07-20T00:01:33;100084.44;;;18.23;100.00
18533;BME280;9396;51.510;11.934;2023-07-20T00:04:00;100089.19;;;18.21;100.00
18533;BME280;9396;51.510;11.934;2023-07-20T00:06:27;100093.78;;;18.21;100.00
18533;BME280;9396;51.510;11.934;2023-07-20T00:08:53;100089.59;;;18.25;100.00
18533;BME280;9396;51.510;11.934;2023-07-20T00:11:20;100095.22;;;18.30;100.00
18533;BME280;9396;51.510;11.934;2023-07-20T00:13:47;100092.09;;;18.33;100.00
18533;BME280;9396;51.510;11.934;2023-07-20T00:16:15;100082.56;;;18.30;100.00
18533;BME280;9396;51.510;11.934;2023-07-20T00:18:42;100085.47;;;18.29;100.00
18533;BME280;9396;51.510;11.934;2023-07-20T00:21:09;100078.84;;;18.31;100.00
18533;BME280;9396;51.510;11.934;2023-07-20T00:23:35;100070.97;;;18.30;100.00
18533;BME280;9396;51.510;11.934;2023-07-20T00:26:02;100079.06;;;18.30;100.00
18533;BME280;9396;51.510;11.934;2023-07-20T00:28:29;100078.22;;;18.29;100.00
18533;BME280;9396;51.510;11.934;2023-07-20T00:30:56;100072.41;;;18.32;100.00
18533;BME280;9396;51.510;11.934;2023-07-20T00:33:24;100076.75;;;18.33;100.00
18533;BME280;9396;51.510;11.934;2023-07-20T00:35:51;100076.97;;;18.32;100.00
18533;BME280;9396;51.510;11.934;2023-07-20T00:38:18;100072.41;;;18.32;100.00
18533;BME280;9396;51.510;11.934;2023-07-20T00:40:44;100078.66;;;18.26;100.00
18533;BME280;9396;51.510;11.934;2023-07-20T00:43:11;100091.06;;;18.27;100.00
18533;BME280;9396;51.510;11.934;2023-07-20T00:45:38;100092.28;;;18.25;100.00
18533;BME280;9396;51.510;11.934;2023-07-20T00:48:06;100091.09;;;18.07;100.00
18533;BME280;9396;51.510;11.934;2023-07-20T00:50:35;100085.31;;;17.91;100.00
18533;BME280;9396;51.510;11.934;2023-07-20T00:53:02;100087.19;;;17.97;100.00
18533;BME280;9396;51.510;11.934;2023-07-20T00:55:32;100078.69;;;18.00;100.00
18533;BME280;9396;51.510;11.934;2023-07-20T00:57:59;100083.88;;;18.08;100.00
18533;BME280;9396;51.510;11.934;2023-07-20T01:00:26;100091.13;;;18.01;100.00
18533;BME280;9396;51.510;11.934;2023-07-20T01:02:53;100086.94;;;18.05;100.00
18533;BME280;9396;51.510;11.934;2023-07-20T01:05:20;100084.47;;;18.03;100.00
18533;BME280;9396;51.510;11.934;2023-07-20T01:07:53;100076.59;;;18.02;100.00
18533;BME280;9396;51.510;11.934;2023-07-20T01:10:31;100078.88;;;18.05;100.00
18533;BME280;9396;51.510;11.934;2023-07-20T01:13:00;100081.16;;;18.08;100.00
18533;BME280;9396;51.510;11.934;2023-07-20T01:15:28;100094.59;;;18.14;100.00
18533;BME280;9396;51.510;11.934;2023-07-20T01:17:54;100086.94;;;18.18;100.00
18533;BME280;9396;51.510;11.934;2023-07-20T01:20:22;100084.88;;;18.20;100.00
18533;BME280;9396;51.510;11.934;2023-07-20T01:26:09;100076.34;;;18.23;100.00
18533;BME280;9396;51.510;11.934;2023-07-20T01:28:57;100078.66;;;18.26;100.00
18533;BME280;9396;51.510;11.934;2023-07-20T01:31:33;100090.44;;;18.25;100.00
18533;BME280;9396;51.510;11.934;2023-07-20T01:34:02;100088.81;;;18.24;100.00
18533;BME280;9396;51.510;11.934;2023-07-20T01:36:32;100074.72;;;18.22;100.00
18533;BME280;9396;51.510;11.934;2023-07-20T01:38:59;100083.63;;;18.23;100.00
18533;BME280;9396;51.510;11.934;2023-07-20T01:41:27;100086.72;;;18.19;100.00
18533;BME280;9396;51.510;11.934;2023-07-20T01:43:57;100091.31;;;18.19;100.00
18533;BME280;9396;51.510;11.934;2023-07-20T01:46:24;100089.88;;;18.10;100.00
18533;BME280;9396;51.510;11.934;2023-07-20T01:48:53;100076.59;;;18.08;100.00
18533;BME280;9396;51.510;11.934;2023-07-20T01:51:20;100076.41;;;18.10;100.00
18533;BME280;9396;51.510;11.934;2023-07-20T01:53:46;100074.13;;;18.07;100.00
18533;BME280;9396;51.510;11.934;2023-07-20T01:56:13;100075.78;;;18.08;100.00
18533;BME280;9396;51.510;11.934;2023-07-20T01:58:40;100077.63;;;18.07;100.00
18533;BME280;9396;51.510;11.934;2023-07-20T02:01:06;100091.09;;;18.07;100.00
18533;BME280;9396;51.510;11.934;2023-07-20T02:03:33;100081.38;;;18.06;100.00
18533;BME280;9396;51.510;11.934;2023-07-20T02:06:02;100091.09;;;18.07;100.00
18533;BME280;9396;51.510;11.934;2023-07-20T02:08:29;100101.25;;;18.05;100.00
18533;BME280;9396;51.510;11.934;2023-07-20T02:10:55;100095.66;;;18.07;100.00
18533;BME280;9396;51.510;11.934;2023-07-20T02:13:22;100093.78;;;18.07;100.00
18533;BME280;9396;51.510;11.934;2023-07-20T02:15:48;100096.91;;;18.04;100.00
18533;BME280;9396;51.510;11.934;2023-07-20T02:18:16;100094.44;;;18.03;100.00
18533;BME280;9396;51.510;11.934;2023-07-20T02:20:43;100100.44;;;17.98;100.00
18533;BME280;9396;51.510;11.934;2023-07-20T02:23:11;100104.97;;;17.98;100.00
18533;BME280;9396;51.510;11.934;2023-07-20T02:25:38;100102.91;;;18.00;100.00
18533;BME280;9396;51.510;11.934;2023-07-20T02:28:04;100105.38;;;18.01;100.00
18533;BME280;9396;51.510;11.934;2023-07-20T02:30:31;100105.59;;;18.00;100.00
18533;BME280;9396;51.510;11.934;2023-07-20T02:32:58;100109.53;;;18.04;100.00
18533;BME280;9396;51.510;11.934;2023-07-20T02:35:24;100114.91;;;18.04;100.00
18533;BME280;9396;51.510;11.934;2023-07-20T02:37:51;100112.22;;;18.04;100.00
18533;BME280;9396;51.510;11.934;2023-07-20T02:40:20;100108.91;;;18.02;100.00
18533;BME280;9396;51.510;11.934;2023-07-20T02:42:46;100111.19;;;17.98;100.00
18533;BME280;9396;51.510;11.934;2023-07-20T02:45:13;100112.66;;;17.88;100.00
18533;BME280;9396;51.510;11.934;2023-07-20T02:47:39;100111.00;;;17.87;100.00
18533;BME280;9396;51.510;11.934;2023-07-20T02:50:07;100100.66;;;17.84;100.00
18533;BME280;9396;51.510;11.934;2023-07-20T02:52:34;100112.03;;;17.92;100.00
18533;BME280;9396;51.510;11.934;2023-07-20T02:55:01;100112.22;;;17.91;100.00
18533;BME280;9396;51.510;11.934;2023-07-20T02:57:29;100120.53;;;17.96;100.00
18533;BME280;9396;51.510;11.934;2023-07-20T02:59:56;100120.94;;;17.99;100.00
18533;BME280;9396;51.510;11.934;2023-07-20T03:02:22;100115.53;;;18.06;100.00
18533;BME280;9396;51.510;11.934;2023-07-20T03:04:49;100109.31;;;18.05;100.00
18533;BME280;9396;51.510;11.934;2023-07-20T03:07:16;100110.59;;;18.03;100.00
18533;BME280;9396;51.510;11.934;2023-07-20T03:09:43;100117.19;;;18.00;100.00
18533;BME280;9396;51.510;11.934;2023-07-20T03:12:10;100116.16;;;17.95;100.00
18533;BME280;9396;51.510;11.934;2023-07-20T03:14:38;100117.84;;;17.96;100.00
18533;BME280;9396;51.510;11.934;2023-07-20T03:17:04;100124.25;;;17.88;100.00
18533;BME280;9396;51.510;11.934;2023-07-20T03:19:32;100119.91;;;17.87;100.00
18533;BME280;9396;51.510;11.934;2023-07-20T03:21:59;100123.00;;;17.84;100.00
18533;BME280;9396;51.510;11.934;2023-07-20T03:24:25;100123.00;;;17.71;100.00
18533;BME280;9396;51.510;11.934;2023-07-20T03:26:52;100123.81;;;17.78;100.00
18533;BME280;9396;51.510;11.934;2023-07-20T03:29:19;100125.28;;;17.81;100.00
18533;BME280;9396;51.510;11.934;2023-07-20T03:31:47;100117.63;;;17.65;100.00
18533;BME280;9396;51.510;11.934;2023-07-20T03:34:13;100120.72;;;17.75;100.00
18533;BME280;9396;51.510;11.934;2023-07-20T03:36:40;100103.75;;;17.81;100.00
18533;BME280;9396;51.510;11.934;2023-07-20T03:39:06;100099.41;;;17.73;100.00
18533;BME280;9396;51.510;11.934;2023-07-20T03:41:33;100102.28;;;17.78;100.00
18533;BME280;9396;51.510;11.934;2023-07-20T03:44:00;100114.72;;;17.79;100.00
18533;BME280;9396;51.510;11.934;2023-07-20T03:46:26;100123.84;;;17.85;100.00
18533;BME280;9396;51.510;11.934;2023-07-20T03:48:54;100127.75;;;17.89;100.00
18533;BME280;9396;51.510;11.934;2023-07-20T03:51:21;100128.38;;;17.91;100.00
18533;BME280;9396;51.510;11.934;2023-07-20T03:53:48;100127.34;;;17.92;100.00
18533;BME280;9396;51.510;11.934;2023-07-20T03:56:14;100119.28;;;17.85;100.00
18533;BME280;9396;51.510;11.934;2023-07-20T03:58:41;100127.13;;;17.80;100.00
18533;BME280;9396;51.510;11.934;2023-07-20T04:01:08;100129.44;;;17.90;100.00
18533;BME280;9396;51.510;11.934;2023-07-20T04:03:35;100128.38;;;17.91;100.00
18533;BME280;9396;51.510;11.934;2023-07-20T04:06:03;100135.00;;;17.95;100.00
18533;BME280;9396;51.510;11.934;2023-07-20T04:08:30;100134.78;;;17.96;100.00
18533;BME280;9396;51.510;11.934;2023-07-20T04:10:57;100139.78;;;18.06;100.00
18533;BME280;9396;51.510;11.934;2023-07-20T04:13:23;100138.94;;;18.12;100.00
18533;BME280;9396;51.510;11.934;2023-07-20T04:15:50;100147.63;;;18.07;100.00
18533;BME280;9396;51.510;11.934;2023-07-20T04:18:16;100144.09;;;18.07;100.00
18533;BME280;9396;51.510;11.934;2023-07-20T04:20:43;100143.09;;;18.08;100.00
18533;BME280;9396;51.510;11.934;2023-07-20T04:23:11;100148.28;;;18.03;100.00
18533;BME280;9396;51.510;11.934;2023-07-20T04:25:39;100143.06;;;18.01;100.00
18533;BME280;9396;51.510;11.934;2023-07-20T04:28:06;100143.72;;;17.97;100.00
18533;BME280;9396;51.510;11.934;2023-07-20T04:30:35;100145.38;;;17.85;100.00
18533;BME280;9396;51.510;11.934;2023-07-20T04:33:03;100149.28;;;17.82;100.00
18533;BME280;9396;51.510;11.934;2023-07-20T04:35:47;100148.69;;;17.93;100.00
18533;BME280;9396;51.510;11.934;2023-07-20T04:38:15;100156.53;;;18.01;100.00
18533;BME280;9396;51.510;11.934;2023-07-20T04:40:43;100153.22;;;18.06;100.00
18533;BME280;9396;51.510;11.934;2023-07-20T04:43:10;100158.19;;;18.09;100.00
18533;BME280;9396;51.510;11.934;2023-07-20T04:45:37;100175.78;;;18.05;100.00
18533;BME280;9396;51.510;11.934;2023-07-20T04:48:06;100167.31;;;18.01;100.00
18533;BME280;9396;51.510;11.934;2023-07-20T04:50:33;100169.81;;;18.09;100.00
18533;BME280;9396;51.510;11.934;2023-07-20T04:53:00;100170.63;;;17.97;100.00
18533;BME280;9396;51.510;11.934;2023-07-20T04:55:28;100168.97;;;17.83;100.00
18533;BME280;9396;51.510;11.934;2023-07-20T04:57:55;100166.28;;;17.83;100.00
18533;BME280;9396;51.510;11.934;2023-07-20T05:00:22;100166.47;;;17.88;100.00
18533;BME280;9396;51.510;11.934;2023-07-20T05:02:48;100162.97;;;17.74;100.00
18533;BME280;9396;51.510;11.934;2023-07-20T05:05:15;100167.31;;;17.88;100.00
18533;BME280;9396;51.510;11.934;2023-07-20T05:07:42;100168.56;;;17.73;100.00
18533;BME280;9396;51.510;11.934;2023-07-20T05:10:09;100174.13;;;17.84;100.00
18533;BME280;9396;51.510;11.934;2023-07-20T05:12:37;100163.16;;;17.86;100.00
18533;BME280;9396;51.510;11.934;2023-07-20T05:15:05;100162.34;;;17.98;100.00
18533;BME280;9396;51.510;11.934;2023-07-20T05:17:31;100167.53;;;17.93;100.00
18533;BME280;9396;51.510;11.934;2023-07-20T05:19:58;100170.81;;;18.08;100.00
18533;BME280;9396;51.510;11.934;2023-07-20T05:22:25;100164.19;;;18.11;100.00
18533;BME280;9396;51.510;11.934;2023-07-20T05:24:52;100175.16;;;18.16;100.00
18533;BME280;9396;51.510;11.934;2023-07-20T05:27:18;100170.63;;;18.16;100.00
18533;BME280;9396;51.510;11.934;2023-07-20T05:29:47;100178.47;;;18.25;100.00
18533;BME280;9396;51.510;11.934;2023-07-20T05:32:14;100173.91;;;18.25;100.00
18533;BME280;9396;51.510;11.934;2023-07-20T05:34:40;100173.94;;;18.18;100.00
18533;BME280;9396;51.510;11.934;2023-07-20T05:37:07;100168.31;;;18.27;100.00
18533;BME280;9396;51.510;11.934;2023-07-20T05:39:34;100173.72;;;18.33;100.00
18533;BME280;9396;51.510;11.934;2023-07-20T05:42:01;100168.53;;;18.38;100.00
18533;BME280;9396;51.510;11.934;2023-07-20T05:44:27;100175.16;;;18.16;100.00
18533;BME280;9396;51.510;11.934;2023-07-20T05:46:55;100171.44;;;18.30;100.00
18533;BME280;9396;51.510;11.934;2023-07-20T05:49:22;100172.91;;;18.26;100.00
18533;BME280;9396;51.510;11.934;2023-07-20T05:51:49;100177.25;;;18.27;100.00
18533;BME280;9396;51.510;11.934;2023-07-20T05:54:15;100177.66;;;18.31;100.00
18533;BME280;9396;51.510;11.934;2023-07-20T05:56:42;100171.84;;;18.40;100.00
18533;BME280;9396;51.510;11.934;2023-07-20T05:59:09;100168.72;;;18.63;100.00
18533;BME280;9396;51.510;11.934;2023-07-20T06:01:35;100171.53;;;18.87;100.00
18533;BME280;9396;51.510;11.934;2023-07-20T06:04:03;100169.31;;;18.71;100.00
18533;BME280;9396;51.510;11.934;2023-07-20T06:06:30;100185.19;;;18.92;100.00
18533;BME280;9396;51.510;11.934;2023-07-20T06:08:57;100174.59;;;19.04;100.00
18533;BME280;9396;51.510;11.934;2023-07-20T06:11:23;100185.50;;;19.15;99.83
18533;BME280;9396;51.510;11.934;2023-07-20T06:13:50;100180.72;;;19.24;98.58
18533;BME280;9396;51.510;11.934;2023-07-20T06:16:17;100190.91;;;19.22;98.72
18533;BME280;9396;51.510;11.934;2023-07-20T06:18:43;100177.50;;;18.96;99.60
18533;BME280;9396;51.510;11.934;2023-07-20T06:21:12;100185.63;;;18.89;100.00
18533;BME280;9396;51.510;11.934;2023-07-20T06:23:38;100187.09;;;18.85;100.00
18533;BME280;9396;51.510;11.934;2023-07-20T06:26:06;100181.50;;;18.80;100.00
18533;BME280;9396;51.510;11.934;2023-07-20T06:28:33;100184.44;;;18.66;100.00
18533;BME280;9396;51.510;11.934;2023-07-20T06:31:00;100179.91;;;18.53;100.00
18533;BME280;9396;51.510;11.934;2023-07-20T06:33:27;100176.38;;;18.72;100.00
18533;BME280;9396;51.510;11.934;2023-07-20T06:35:53;100175.94;;;18.75;100.00
18533;BME280;9396;51.510;11.934;2023-07-20T06:38:23;100173.78;;;18.90;100.00
18533;BME280;9396;51.510;11.934;2023-07-20T06:40:51;100172.78;;;18.91;100.00
18533;BME280;9396;51.510;11.934;2023-07-20T06:43:17;100179.78;;;18.99;100.00
18533;BME280;9396;51.510;11.934;2023-07-20T06:45:44;100183.38;;;18.86;100.00
18533;BME280;9396;51.510;11.934;2023-07-20T06:48:11;100178.78;;;18.93;100.00
18533;BME280;9396;51.510;11.934;2023-07-20T06:50:37;100185.44;;;18.84;100.00
18533;BME280;9396;51.510;11.934;2023-07-20T06:53:04;100178.84;;;18.67;100.00
18533;BME280;9396;51.510;11.934;2023-07-20T06:55:32;100187.94;;;18.79;100.00
18533;BME280;9396;51.510;11.934;2023-07-20T06:57:58;100177.97;;;18.80;100.00
18533;BME280;9396;51.510;11.934;2023-07-20T07:00:25;100175.88;;;19.39;100.00
18533;BME280;9396;51.510;11.934;2023-07-20T07:02:52;100181.41;;;19.82;100.00
18533;BME280;9396;51.510;11.934;2023-07-20T07:05:18;100178.03;;;19.93;97.72
18533;BME280;9396;51.510;11.934;2023-07-20T07:07:45;100182.56;;;19.68;96.39
18533;BME280;9396;51.510;11.934;2023-07-20T07:10:12;100185.94;;;19.63;97.13
18533;BME280;9396;51.510;11.934;2023-07-20T07:12:40;100179.16;;;19.79;97.50
18533;BME280;9396;51.510;11.934;2023-07-20T07:15:08;100175.22;;;20.06;96.78
18533;BME280;9396;51.510;11.934;2023-07-20T07:17:36;100187.66;;;20.74;95.85
18533;BME280;9396;51.510;11.934;2023-07-20T07:20:03;100168.53;;;21.42;91.72
18533;BME280;9396;51.510;11.934;2023-07-20T07:22:30;100180.50;;;21.93;84.72
18533;BME280;9396;51.510;11.934;2023-07-20T07:24:57;100176.78;;;22.41;82.72
18533;BME280;9396;51.510;11.934;2023-07-20T07:27:23;100173.22;;;23.38;80.64
18533;BME280;9396;51.510;11.934;2023-07-20T07:29:51;100184.75;;;23.45;81.22
18533;BME280;9396;51.510;11.934;2023-07-20T07:32:18;100181.28;;;23.21;83.41
18533;BME280;9396;51.510;11.934;2023-07-20T07:34:44;100183.38;;;23.30;83.08
18533;BME280;9396;51.510;11.934;2023-07-20T07:37:13;100179.59;;;22.92;82.34
18533;BME280;9396;51.510;11.934;2023-07-20T07:39:40;100186.78;;;22.17;83.98
18533;BME280;9396;51.510;11.934;2023-07-20T07:42:06;100185.59;;;22.13;81.92
18533;BME280;9396;51.510;11.934;2023-07-20T07:44:33;100182.84;;;21.90;85.64
18533;BME280;9396;51.510;11.934;2023-07-20T07:47:01;100187.41;;;21.48;86.34
18533;BME280;9396;51.510;11.934;2023-07-20T07:49:28;100189.72;;;21.63;86.56
18533;BME280;9396;51.510;11.934;2023-07-20T07:51:54;100185.16;;;21.75;85.23
18533;BME280;9396;51.510;11.934;2023-07-20T07:54:21;100184.91;;;22.29;83.23
18533;BME280;9396;51.510;11.934;2023-07-20T07:56:48;100184.47;;;22.55;80.39
18533;BME280;9396;51.510;11.934;2023-07-20T07:59:16;100182.69;;;22.61;83.56
18533;BME280;9396;51.510;11.934;2023-07-20T08:01:43;100184.09;;;22.75;85.01
18533;BME280;9396;51.510;11.934;2023-07-20T08:04:11;100189.72;;;22.50;83.13
18533;BME280;9396;51.510;11.934;2023-07-20T08:06:38;100182.19;;;22.75;85.08
18533;BME280;9396;51.510;11.934;2023-07-20T08:09:05;100183.63;;;22.66;79.75
18533;BME280;9396;51.510;11.934;2023-07-20T08:11:32;100181.50;;;22.80;79.55
18533;BME280;9396;51.510;11.934;2023-07-20T08:13:59;100183.50;;;22.73;78.97
18533;BME280;9396;51.510;11.934;2023-07-20T08:16:26;100184.00;;;22.58;79.44
18533;BME280;9396;51.510;11.934;2023-07-20T08:18:53;100186.78;;;22.17;79.39
18533;BME280;9396;51.510;11.934;2023-07-20T08:21:21;100183.63;;;21.79;81.77
18533;BME280;9396;51.510;11.934;2023-07-20T08:23:47;100190.91;;;21.49;83.59
18533;BME280;9396;51.510;11.934;2023-07-20T08:26:14;100185.34;;;21.32;87.58
18533;BME280;9396;51.510;11.934;2023-07-20T08:28:43;100186.84;;;21.28;86.60
18533;BME280;9396;51.510;11.934;2023-07-20T08:31:10;100186.19;;;21.14;85.90
18533;BME280;9396;51.510;11.934;2023-07-20T08:33:37;100188.44;;;20.99;87.68
18533;BME280;9396;51.510;11.934;2023-07-20T08:36:04;100189.31;;;20.93;85.22
18533;BME280;9396;51.510;11.934;2023-07-20T08:38:32;100185.19;;;20.91;85.04
18533;BME280;9396;51.510;11.934;2023-07-20T08:40:59;100184.69;;;20.82;86.15
18533;BME280;9396;51.510;11.934;2023-07-20T08:43:27;100192.63;;;20.95;85.10
18533;BME280;9396;51.510;11.934;2023-07-20T08:45:55;100185.34;;;20.96;84.48
18533;BME280;9396;51.510;11.934;2023-07-20T08:48:21;100173.88;;;20.82;84.89
18533;BME280;9396;51.510;11.934;2023-07-20T08:50:51;100184.50;;;20.77;86.57
18533;BME280;9396;51.510;11.934;2023-07-20T08:53:18;100187.47;;;20.33;85.58
18533;BME280;9396;51.510;11.934;2023-07-20T08:55:48;100190.47;;;20.25;87.79
18533;BME280;9396;51.510;11.934;2023-07-20T08:58:16;100206.22;;;20.28;92.38
18533;BME280;9396;51.510;11.934;2023-07-20T09:00:44;100213.75;;;19.95;93.14
18533;BME280;9396;51.510;11.934;2023-07-20T09:03:11;100216.56;;;19.75;94.57
18533;BME280;9396;51.510;11.934;2023-07-20T09:05:38;100210.56;;;19.36;97.63
18533;BME280;9396;51.510;11.934;2023-07-20T09:08:05;100206.28;;;19.08;100.00
18533;BME280;9396;51.510;11.934;2023-07-20T09:10:32;100216.38;;;18.62;100.00
18533;BME280;9396;51.510;11.934;2023-07-20T09:13:00;100228.81;;;18.37;100.00
18533;BME280;9396;51.510;11.934;2023-07-20T09:15:30;100230.91;;;18.22;100.00
18533;BME280;9396;51.510;11.934;2023-07-20T09:18:01;100219.06;;;18.03;100.00
18533;BME280;9396;51.510;11.934;2023-07-20T09:20:31;100218.47;;;18.14;100.00
18533;BME280;9396;51.510;11.934;2023-07-20T09:22:58;100230.91;;;18.22;100.00
18533;BME280;9396;51.510;11.934;2023-07-20T09:25:26;100259.06;;;18.19;100.00
18533;BME280;9396;51.510;11.934;2023-07-20T09:27:53;100267.72;;;17.82;100.00
18533;BME280;9396;51.510;11.934;2023-07-20T09:30:25;100268.75;;;17.88;100.00
18533;BME280;9396;51.510;11.934;2023-07-20T09:32:52;100268.69;;;17.62;100.00
18533;BME280;9396;51.510;11.934;2023-07-20T09:35:19;100260.84;;;17.73;100.00
18533;BME280;9396;51.510;11.934;2023-07-20T09:37:48;100257.94;;;17.75;100.00
18533;BME280;9396;51.510;11.934;2023-07-20T09:40:17;100255.25;;;17.75;100.00
18533;BME280;9396;51.510;11.934;2023-07-20T09:42:44;100253.41;;;17.75;100.00
18533;BME280;9396;51.510;11.934;2023-07-20T09:45:11;100256.13;;;17.95;100.00
18533;BME280;9396;51.510;11.934;2023-07-20T09:47:40;100271.91;;;18.04;100.00
18533;BME280;9396;51.510;11.934;2023-07-20T09:50:08;100262.16;;;18.03;100.00
18533;BME280;9396;51.510;11.934;2023-07-20T09:52:40;100264.63;;;18.05;100.00
18533;BME280;9396;51.510;11.934;2023-07-20T09:55:07;100257.81;;;18.22;100.00
18533;BME280;9396;51.510;11.934;2023-07-20T09:57:35;100256.19;;;18.28;100.00
18533;BME280;9396;51.510;11.934;2023-07-20T10:00:03;100250.78;;;18.34;100.00
18533;BME280;9396;51.510;11.934;2023-07-20T10:02:35;100254.94;;;18.43;100.00
18533;BME280;9396;51.510;11.934;2023-07-20T10:05:06;100256.78;;;18.36;100.00
18533;BME280;9396;51.510;11.934;2023-07-20T10:07:36;100251.41;;;18.62;100.00
18533;BME280;9396;51.510;11.934;2023-07-20T10:10:07;100252.63;;;18.86;100.00
18533;BME280;9396;51.510;11.934;2023-07-20T10:12:37;100258.16;;;19.10;100.00
18533;BME280;9396;51.510;11.934;2023-07-20T10:15:10;100262.88;;;19.21;100.00
18533;BME280;9396;51.510;11.934;2023-07-20T10:17:42;100262.00;;;19.41;100.00
18533;BME280;9396;51.510;11.934;2023-07-20T10:20:16;100267.03;;;19.24;100.00
18533;BME280;9396;51.510;11.934;2023-07-20T10:22:47;100269.69;;;19.37;100.00
18533;BME280;9396;51.510;11.934;2023-07-20T10:25:16;100274.91;;;19.26;100.00
18533;BME280;9396;51.510;11.934;2023-07-20T10:27:43;100275.94;;;19.38;100.00
18533;BME280;9396;51.510;11.934;2023-07-20T10:30:10;100272.63;;;19.36;100.00
18533;BME280;9396;51.510;11.934;2023-07-20T10:32:38;100264.13;;;19.26;100.00
18533;BME280;9396;51.510;11.934;2023-07-20T10:35:12;100259.56;;;19.19;100.00
18533;BME280;9396;51.510;11.934;2023-07-20T10:37:51;100256.31;;;19.04;100.00
18533;BME280;9396;51.510;11.934;2023-07-20T10:40:28;100271.81;;;19.15;100.00
18533;BME280;9396;51.510;11.934;2023-07-20T10:43:03;100269.78;;;18.98;100.00
18533;BME280;9396;51.510;11.934;2023-07-20T10:45:50;100277.88;;;19.11;100.00
18533;BME280;9396;51.510;11.934;2023-07-20T10:48:19;100272.44;;;19.31;100.00
18533;BME280;9396;51.510;11.934;2023-07-20T10:50:48;100278.66;;;19.18;100.00
18533;BME280;9396;51.510;11.934;2023-07-20T10:53:34;100274.72;;;19.20;100.00
18533;BME280;9396;51.510;11.934;2023-07-20T10:56:08;100265.16;;;19.24;100.00
18533;BME280;9396;51.510;11.934;2023-07-20T10:58:35;100282.09;;;19.58;100.00
18533;BME280;9396;51.510;11.934;2023-07-20T11:01:03;100273.97;;;19.58;100.00
18533;BME280;9396;51.510;11.934;2023-07-20T11:03:33;100281.88;;;19.53;100.00
18533;BME280;9396;51.510;11.934;2023-07-20T11:06:29;100281.16;;;19.33;99.01
18533;BME280;9396;51.510;11.934;2023-07-20T11:09:04;100274.69;;;19.34;100.00
18533;BME280;9396;51.510;11.934;2023-07-20T11:11:34;100279.47;;;19.32;100.00
18533;BME280;9396;51.510;11.934;2023-07-20T11:14:03;100280.94;;;19.34;100.00
18533;BME280;9396;51.510;11.934;2023-07-20T11:16:34;100280.72;;;19.29;98.39
18533;BME280;9396;51.510;11.934;2023-07-20T11:19:02;100281.50;;;19.43;100.00
18533;BME280;9396;51.510;11.934;2023-07-20T11:21:29;100279.81;;;19.48;100.00
18533;BME280;9396;51.510;11.934;2023-07-20T11:23:58;100275.44;;;19.54;100.00
18533;BME280;9396;51.510;11.934;2023-07-20T11:26:24;100271.69;;;19.55;100.00
18533;BME280;9396;51.510;11.934;2023-07-20T11:28:51;100283.09;;;19.57;100.00
18533;BME280;9396;51.510;11.934;2023-07-20T11:31:18;100270.44;;;19.57;100.00
18533;BME280;9396;51.510;11.934;2023-07-20T11:33:45;100271.41;;;19.76;100.00
18533;BME280;9396;51.510;11.934;2023-07-20T11:36:12;100275.91;;;19.82;100.00
18533;BME280;9396;51.510;11.934;2023-07-20T11:38:41;100269.84;;;19.93;98.36
18533;BME280;9396;51.510;11.934;2023-07-20T11:41:10;100271.97;;;20.15;100.00
18533;BME280;9396;51.510;11.934;2023-07-20T11:43:38;100278.00;;;20.42;98.18
18533;BME280;9396;51.510;11.934;2023-07-20T11:46:05;100272.88;;;20.59;96.42
18533;BME280;9396;51.510;11.934;2023-07-20T11:48:32;100274.28;;;20.43;94.32
18533;BME280;9396;51.510;11.934;2023-07-20T11:50:59;100268.53;;;20.33;89.60
18533;BME280;9396;51.510;11.934;2023-07-20T11:53:26;100267.75;;;20.26;94.09
18533;BME280;9396;51.510;11.934;2023-07-20T11:55:53;100277.34;;;20.15;92.93
18533;BME280;9396;51.510;11.934;2023-07-20T11:58:21;100281.72;;;20.23;96.16
18533;BME280;9396;51.510;11.934;2023-07-20T12:00:48;100280.50;;;20.12;95.85
18533;BME280;9396;51.510;11.934;2023-07-20T12:03:15;100267.44;;;20.09;96.06
18533;BME280;9396;51.510;11.934;2023-07-20T12:05:42;100278.50;;;20.01;97.46
18533;BME280;9396;51.510;11.934;2023-07-20T12:08:09;100290.69;;;20.10;98.10
18533;BME280;9396;51.510;11.934;2023-07-20T12:10:39;100282.16;;;20.13;98.77
18533;BME280;9396;51.510;11.934;2023-07-20T12:13:09;100278.72;;;20.00;95.88
18533;BME280;9396;51.510;11.934;2023-07-20T12:15:38;100274.78;;;19.96;95.14
18533;BME280;9396;51.510;11.934;2023-07-20T12:18:05;100277.06;;;19.99;94.97
18533;BME280;9396;51.510;11.934;2023-07-20T12:20:33;100278.16;;;19.91;93.63
18533;BME280;9396;51.510;11.934;2023-07-20T12:23:02;100274.16;;;20.00;96.72
18533;BME280;9396;51.510;11.934;2023-07-20T12:25:36;100279.44;;;20.13;95.06
18533;BME280;9396;51.510;11.934;2023-07-20T12:28:05;100277.16;;;20.17;92.33
18533;BME280;9396;51.510;11.934;2023-07-20T12:30:31;100279.63;;;20.25;92.22
18533;BME280;9396;51.510;11.934;2023-07-20T12:33:00;100274.69;;;20.40;92.38
18533;BME280;9396;51.510;11.934;2023-07-20T12:35:26;100272.00;;;20.40;91.21
18533;BME280;9396;51.510;11.934;2023-07-20T12:37:53;100275.47;;;20.47;89.31
18533;BME280;9396;51.510;11.934;2023-07-20T12:40:20;100263.56;;;20.55;89.91
18533;BME280;9396;51.510;11.934;2023-07-20T12:42:47;100271.66;;;20.55;89.01
18533;BME280;9396;51.510;11.934;2023-07-20T12:45:13;100264.09;;;20.45;88.51
18533;BME280;9396;51.510;11.934;2023-07-20T12:47:40;100274.59;;;20.29;87.50
18533;BME280;9396;51.510;11.934;2023-07-20T12:50:10;100267.38;;;20.22;87.29